sensor_id;sensor_type;location;lat;lon;timestamp;P1;durP1;ratioP1;P2;durP2;ratioP2
53903;SDS011;39812;52.430;16.936;2023-12-20T00:01:54;14.18;;;7.72;;
53903;SDS011;39812;52.430;16.936;2023-12-20T00:04:20;14.35;;;7.70;;
53903;SDS011;39812;52.430;16.936;2023-12-20T00:06:46;10.95;;;6.93;;
53903;SDS011;39812;52.430;16.936;2023-12-20T00:09:12;14.35;;;7.03;;
53903;SDS011;39812;52.430;16.936;2023-12-20T00:11:38;13.38;;;7.75;;
53903;SDS011;39812;52.430;16.936;2023-12-20T00:14:07;15.40;;;7.90;;
53903;SDS011;39812;52.430;16.936;2023-12-20T00:16:33;14.60;;;9.60;;
53903;SDS011;39812;52.430;16.936;2023-12-20T00:18:59;13.80;;;7.70;;
53903;SDS011;39812;52.430;16.936;2023-12-20T00:21:25;14.45;;;7.47;;
53903;SDS011;39812;52.430;16.936;2023-12-20T00:23:51;12.93;;;6.85;;
53903;SDS011;39812;52.430;16.936;2023-12-20T00:26:17;15.40;;;7.28;;
53903;SDS011;39812;52.430;16.936;2023-12-20T00:28:43;14.75;;;7.07;;
53903;SDS011;39812;52.430;16.936;2023-12-20T00:31:09;13.43;;;7.38;;
53903;SDS011;39812;52.430;16.936;2023-12-20T00:33:35;14.02;;;7.45;;
53903;SDS011;39812;52.430;16.936;2023-12-20T00:36:01;14.82;;;6.55;;
53903;SDS011;39812;52.430;16.936;2023-12-20T00:38:27;13.32;;;7.32;;
53903;SDS011;39812;52.430;16.936;2023-12-20T00:40:53;14.52;;;7.55;;
53903;SDS011;39812;52.430;16.936;2023-12-20T00:43:19;14.40;;;6.93;;
53903;SDS011;39812;52.430;16.936;2023-12-20T00:45:45;12.13;;;6.80;;
53903;SDS011;39812;52.430;16.936;2023-12-20T00:48:11;12.35;;;7.25;;
53903;SDS011;39812;52.430;16.936;2023-12-20T00:50:37;13.13;;;6.72;;
53903;SDS011;39812;52.430;16.936;2023-12-20T00:53:03;12.27;;;7.25;;
53903;SDS011;39812;52.430;16.936;2023-12-20T00:55:30;13.93;;;7.18;;
53903;SDS011;39812;52.430;16.936;2023-12-20T00:57:56;12.38;;;6.22;;
53903;SDS011;39812;52.430;16.936;2023-12-20T01:00:24;15.25;;;6.63;;
53903;SDS011;39812;52.430;16.936;2023-12-20T01:02:50;12.35;;;6.50;;
53903;SDS011;39812;52.430;16.936;2023-12-20T01:05:16;12.35;;;6.82;;
53903;SDS011;39812;52.430;16.936;2023-12-20T01:07:42;10.95;;;6.72;;
53903;SDS011;39812;52.430;16.936;2023-12-20T01:10:08;12.00;;;6.28;;
53903;SDS011;39812;52.430;16.936;2023-12-20T01:12:35;13.20;;;7.47;;
53903;SDS011;39812;52.430;16.936;2023-12-20T01:15:02;10.05;;;5.78;;
53903;SDS011;39812;52.430;16.936;2023-12-20T01:17:28;15.40;;;6.68;;
53903;SDS011;39812;52.430;16.936;2023-12-20T01:19:54;14.73;;;6.40;;
53903;SDS011;39812;52.430;16.936;2023-12-20T01:22:20;11.50;;;5.80;;
53903;SDS011;39812;52.430;16.936;2023-12-20T01:24:46;12.15;;;6.72;;
53903;SDS011;39812;52.430;16.936;2023-12-20T01:27:12;11.85;;;6.78;;
53903;SDS011;39812;52.430;16.936;2023-12-20T01:29:38;12.20;;;7.45;;
53903;SDS011;39812;52.430;16.936;2023-12-20T01:32:04;11.73;;;6.20;;
53903;SDS011;39812;52.430;16.936;2023-12-20T01:34:30;10.30;;;5.22;;
53903;SDS011;39812;52.430;16.936;2023-12-20T01:36:56;14.57;;;6.65;;
53903;SDS011;39812;52.430;16.936;2023-12-20T01:39:22;10.90;;;6.13;;
53903;SDS011;39812;52.430;16.936;2023-12-20T01:41:48;10.18;;;5.97;;
53903;SDS011;39812;52.430;16.936;2023-12-20T01:44:14;8.52;;;5.13;;
53903;SDS011;39812;52.430;16.936;2023-12-20T01:46:40;9.38;;;5.72;;
53903;SDS011;39812;52.430;16.936;2023-12-20T01:49:06;10.30;;;5.63;;
53903;SDS011;39812;52.430;16.936;2023-12-20T01:51:33;7.07;;;4.18;;
53903;SDS011;39812;52.430;16.936;2023-12-20T01:53:59;9.15;;;5.05;;
53903;SDS011;39812;52.430;16.936;2023-12-20T01:56:26;8.90;;;5.13;;
53903;SDS011;39812;52.430;16.936;2023-12-20T01:58:54;9.05;;;5.07;;
53903;SDS011;39812;52.430;16.936;2023-12-20T02:01:21;9.35;;;4.55;;
53903;SDS011;39812;52.430;16.936;2023-12-20T02:03:47;9.10;;;5.55;;
53903;SDS011;39812;52.430;16.936;2023-12-20T02:06:14;8.98;;;4.78;;
53903;SDS011;39812;52.430;16.936;2023-12-20T02:08:40;10.52;;;5.88;;
53903;SDS011;39812;52.430;16.936;2023-12-20T02:11:06;8.70;;;5.43;;
53903;SDS011;39812;52.430;16.936;2023-12-20T02:13:32;11.43;;;5.65;;
53903;SDS011;39812;52.430;16.936;2023-12-20T02:15:58;8.38;;;4.53;;
53903;SDS011;39812;52.430;16.936;2023-12-20T02:18:25;9.40;;;4.85;;
53903;SDS011;39812;52.430;16.936;2023-12-20T02:20:51;7.22;;;4.68;;
53903;SDS011;39812;52.430;16.936;2023-12-20T02:23:17;8.50;;;4.57;;
53903;SDS011;39812;52.430;16.936;2023-12-20T02:25:43;12.00;;;5.55;;
53903;SDS011;39812;52.430;16.936;2023-12-20T02:28:09;9.32;;;5.20;;
53903;SDS011;39812;52.430;16.936;2023-12-20T02:30:35;8.55;;;5.10;;
53903;SDS011;39812;52.430;16.936;2023-12-20T02:33:01;12.82;;;5.60;;
53903;SDS011;39812;52.430;16.936;2023-12-20T02:35:29;11.00;;;6.68;;
53903;SDS011;39812;52.430;16.936;2023-12-20T02:37:55;12.50;;;7.30;;
53903;SDS011;39812;52.430;16.936;2023-12-20T02:40:21;11.77;;;5.65;;
53903;SDS011;39812;52.430;16.936;2023-12-20T02:42:47;12.68;;;7.30;;
53903;SDS011;39812;52.430;16.936;2023-12-20T02:45:13;12.93;;;6.57;;
53903;SDS011;39812;52.430;16.936;2023-12-20T02:47:39;11.55;;;6.35;;
53903;SDS011;39812;52.430;16.936;2023-12-20T02:50:05;10.13;;;6.00;;
53903;SDS011;39812;52.430;16.936;2023-12-20T02:52:31;10.27;;;5.70;;
53903;SDS011;39812;52.430;16.936;2023-12-20T02:54:57;12.73;;;7.15;;
53903;SDS011;39812;52.430;16.936;2023-12-20T02:57:23;13.10;;;6.85;;
53903;SDS011;39812;52.430;16.936;2023-12-20T02:59:49;10.23;;;5.78;;
53903;SDS011;39812;52.430;16.936;2023-12-20T03:02:15;9.57;;;6.15;;
53903;SDS011;39812;52.430;16.936;2023-12-20T03:04:41;10.07;;;5.95;;
53903;SDS011;39812;52.430;16.936;2023-12-20T03:07:07;10.88;;;6.70;;
53903;SDS011;39812;52.430;16.936;2023-12-20T03:09:33;8.82;;;4.80;;
53903;SDS011;39812;52.430;16.936;2023-12-20T03:11:59;10.30;;;6.72;;
53903;SDS011;39812;52.430;16.936;2023-12-20T03:14:25;8.27;;;5.07;;
53903;SDS011;39812;52.430;16.936;2023-12-20T03:16:51;11.38;;;6.00;;
53903;SDS011;39812;52.430;16.936;2023-12-20T03:19:17;8.77;;;5.78;;
53903;SDS011;39812;52.430;16.936;2023-12-20T03:21:44;8.85;;;4.85;;
53903;SDS011;39812;52.430;16.936;2023-12-20T03:24:10;10.27;;;4.95;;
53903;SDS011;39812;52.430;16.936;2023-12-20T03:26:36;10.13;;;5.57;;
53903;SDS011;39812;52.430;16.936;2023-12-20T03:29:02;8.95;;;4.85;;
53903;SDS011;39812;52.430;16.936;2023-12-20T03:31:29;7.55;;;4.38;;
53903;SDS011;39812;52.430;16.936;2023-12-20T03:33:55;9.45;;;5.00;;
53903;SDS011;39812;52.430;16.936;2023-12-20T03:36:20;7.28;;;4.30;;
53903;SDS011;39812;52.430;16.936;2023-12-20T03:38:46;8.93;;;5.00;;
53903;SDS011;39812;52.430;16.936;2023-12-20T03:41:13;10.00;;;4.75;;
53903;SDS011;39812;52.430;16.936;2023-12-20T03:43:39;8.13;;;4.43;;
53903;SDS011;39812;52.430;16.936;2023-12-20T03:46:05;8.60;;;5.05;;
53903;SDS011;39812;52.430;16.936;2023-12-20T03:48:31;11.43;;;5.03;;
53903;SDS011;39812;52.430;16.936;2023-12-20T03:50:57;10.20;;;5.13;;
53903;SDS011;39812;52.430;16.936;2023-12-20T03:53:23;10.75;;;5.07;;
53903;SDS011;39812;52.430;16.936;2023-12-20T03:55:49;9.90;;;5.97;;
53903;SDS011;39812;52.430;16.936;2023-12-20T03:58:15;13.85;;;5.97;;
53903;SDS011;39812;52.430;16.936;2023-12-20T04:00:41;10.18;;;4.85;;
53903;SDS011;39812;52.430;16.936;2023-12-20T04:03:07;9.60;;;5.65;;
53903;SDS011;39812;52.430;16.936;2023-12-20T04:05:33;10.27;;;5.85;;
53903;SDS011;39812;52.430;16.936;2023-12-20T04:08:00;10.65;;;6.47;;
53903;SDS011;39812;52.430;16.936;2023-12-20T04:10:27;11.38;;;6.20;;
53903;SDS011;39812;52.430;16.936;2023-12-20T04:12:53;9.00;;;5.25;;
53903;SDS011;39812;52.430;16.936;2023-12-20T04:15:20;8.00;;;4.55;;
53903;SDS011;39812;52.430;16.936;2023-12-20T04:17:46;8.13;;;4.20;;
53903;SDS011;39812;52.430;16.936;2023-12-20T04:20:12;9.45;;;4.80;;
53903;SDS011;39812;52.430;16.936;2023-12-20T04:22:38;9.10;;;5.10;;
53903;SDS011;39812;52.430;16.936;2023-12-20T04:25:04;8.43;;;4.28;;
53903;SDS011;39812;52.430;16.936;2023-12-20T04:27:30;9.15;;;4.25;;
53903;SDS011;39812;52.430;16.936;2023-12-20T04:29:56;8.43;;;4.28;;
53903;SDS011;39812;52.430;16.936;2023-12-20T04:32:22;8.65;;;4.85;;
53903;SDS011;39812;52.430;16.936;2023-12-20T04:34:48;7.07;;;4.40;;
53903;SDS011;39812;52.430;16.936;2023-12-20T04:37:14;7.68;;;4.72;;
53903;SDS011;39812;52.430;16.936;2023-12-20T04:39:40;9.40;;;4.95;;
53903;SDS011;39812;52.430;16.936;2023-12-20T04:42:06;9.13;;;5.18;;
53903;SDS011;39812;52.430;16.936;2023-12-20T04:44:32;6.85;;;3.53;;
53903;SDS011;39812;52.430;16.936;2023-12-20T04:46:59;9.00;;;4.85;;
53903;SDS011;39812;52.430;16.936;2023-12-20T04:49:25;9.00;;;5.40;;
53903;SDS011;39812;52.430;16.936;2023-12-20T04:51:51;10.40;;;5.18;;
53903;SDS011;39812;52.430;16.936;2023-12-20T04:54:17;9.95;;;5.45;;
53903;SDS011;39812;52.430;16.936;2023-12-20T04:56:43;7.40;;;4.15;;
53903;SDS011;39812;52.430;16.936;2023-12-20T04:59:09;12.23;;;6.63;;
53903;SDS011;39812;52.430;16.936;2023-12-20T05:01:35;9.88;;;5.32;;
53903;SDS011;39812;52.430;16.936;2023-12-20T05:04:01;8.25;;;4.75;;
53903;SDS011;39812;52.430;16.936;2023-12-20T05:06:27;9.52;;;5.43;;
53903;SDS011;39812;52.430;16.936;2023-12-20T05:08:53;10.55;;;5.78;;
53903;SDS011;39812;52.430;16.936;2023-12-20T05:11:19;10.18;;;5.43;;
53903;SDS011;39812;52.430;16.936;2023-12-20T05:13:45;10.75;;;5.57;;
53903;SDS011;39812;52.430;16.936;2023-12-20T05:16:11;9.70;;;5.40;;
53903;SDS011;39812;52.430;16.936;2023-12-20T05:18:39;10.20;;;6.13;;
53903;SDS011;39812;52.430;16.936;2023-12-20T05:21:05;8.38;;;5.43;;
53903;SDS011;39812;52.430;16.936;2023-12-20T05:23:31;10.10;;;5.38;;
53903;SDS011;39812;52.430;16.936;2023-12-20T05:25:57;9.27;;;5.63;;
53903;SDS011;39812;52.430;16.936;2023-12-20T05:28:24;8.95;;;5.82;;
53903;SDS011;39812;52.430;16.936;2023-12-20T05:30:50;11.38;;;6.50;;
53903;SDS011;39812;52.430;16.936;2023-12-20T05:33:16;10.63;;;5.50;;
53903;SDS011;39812;52.430;16.936;2023-12-20T05:35:42;10.30;;;5.47;;
53903;SDS011;39812;52.430;16.936;2023-12-20T05:38:08;9.50;;;5.47;;
53903;SDS011;39812;52.430;16.936;2023-12-20T05:40:34;10.13;;;5.30;;
53903;SDS011;39812;52.430;16.936;2023-12-20T05:43:00;9.60;;;4.47;;
53903;SDS011;39812;52.430;16.936;2023-12-20T05:45:27;6.85;;;3.88;;
53903;SDS011;39812;52.430;16.936;2023-12-20T05:47:53;5.90;;;3.65;;
53903;SDS011;39812;52.430;16.936;2023-12-20T05:50:19;7.82;;;4.55;;
53903;SDS011;39812;52.430;16.936;2023-12-20T05:52:46;5.93;;;3.50;;
53903;SDS011;39812;52.430;16.936;2023-12-20T05:55:12;6.47;;;3.60;;
53903;SDS011;39812;52.430;16.936;2023-12-20T05:57:38;7.18;;;4.38;;
53903;SDS011;39812;52.430;16.936;2023-12-20T06:00:04;7.00;;;3.67;;
53903;SDS011;39812;52.430;16.936;2023-12-20T06:02:31;6.15;;;3.80;;
53903;SDS011;39812;52.430;16.936;2023-12-20T06:04:57;7.70;;;4.10;;
53903;SDS011;39812;52.430;16.936;2023-12-20T06:07:23;8.57;;;4.30;;
53903;SDS011;39812;52.430;16.936;2023-12-20T06:09:49;5.93;;;3.47;;
53903;SDS011;39812;52.430;16.936;2023-12-20T06:12:16;5.88;;;3.50;;
53903;SDS011;39812;52.430;16.936;2023-12-20T06:14:42;7.15;;;4.70;;
53903;SDS011;39812;52.430;16.936;2023-12-20T06:17:08;7.50;;;4.75;;
53903;SDS011;39812;52.430;16.936;2023-12-20T06:19:34;7.20;;;4.20;;
53903;SDS011;39812;52.430;16.936;2023-12-20T06:22:00;7.75;;;3.95;;
53903;SDS011;39812;52.430;16.936;2023-12-20T06:24:26;7.15;;;3.88;;
53903;SDS011;39812;52.430;16.936;2023-12-20T06:26:53;6.82;;;4.07;;
53903;SDS011;39812;52.430;16.936;2023-12-20T06:29:20;6.07;;;3.72;;
53903;SDS011;39812;52.430;16.936;2023-12-20T06:31:46;7.82;;;4.15;;
53903;SDS011;39812;52.430;16.936;2023-12-20T06:34:12;9.93;;;4.25;;
53903;SDS011;39812;52.430;16.936;2023-12-20T06:36:38;6.00;;;4.20;;
53903;SDS011;39812;52.430;16.936;2023-12-20T06:39:04;5.88;;;3.70;;
53903;SDS011;39812;52.430;16.936;2023-12-20T06:41:30;8.05;;;3.72;;
53903;SDS011;39812;52.430;16.936;2023-12-20T06:43:56;6.00;;;3.47;;
53903;SDS011;39812;52.430;16.936;2023-12-20T06:46:23;7.53;;;3.55;;
53903;SDS011;39812;52.430;16.936;2023-12-20T06:48:49;5.50;;;4.03;;
53903;SDS011;39812;52.430;16.936;2023-12-20T06:51:15;10.52;;;3.67;;
53903;SDS011;39812;52.430;16.936;2023-12-20T06:53:42;6.75;;;4.03;;
53903;SDS011;39812;52.430;16.936;2023-12-20T06:56:08;5.88;;;3.72;;
53903;SDS011;39812;52.430;16.936;2023-12-20T06:58:34;6.35;;;3.55;;
53903;SDS011;39812;52.430;16.936;2023-12-20T07:01:02;6.60;;;3.55;;
53903;SDS011;39812;52.430;16.936;2023-12-20T07:03:29;7.10;;;4.05;;
53903;SDS011;39812;52.430;16.936;2023-12-20T07:05:55;5.97;;;3.60;;
53903;SDS011;39812;52.430;16.936;2023-12-20T07:08:21;8.02;;;3.30;;
53903;SDS011;39812;52.430;16.936;2023-12-20T07:10:47;6.10;;;3.35;;
53903;SDS011;39812;52.430;16.936;2023-12-20T07:13:13;5.88;;;3.13;;
53903;SDS011;39812;52.430;16.936;2023-12-20T07:15:39;9.43;;;4.22;;
53903;SDS011;39812;52.430;16.936;2023-12-20T07:18:05;6.30;;;3.30;;
53903;SDS011;39812;52.430;16.936;2023-12-20T07:20:32;6.55;;;3.83;;
53903;SDS011;39812;52.430;16.936;2023-12-20T07:22:58;7.57;;;3.40;;
53903;SDS011;39812;52.430;16.936;2023-12-20T07:25:24;8.35;;;3.83;;
53903;SDS011;39812;52.430;16.936;2023-12-20T07:27:50;8.20;;;3.88;;
53903;SDS011;39812;52.430;16.936;2023-12-20T07:30:16;6.75;;;3.80;;
53903;SDS011;39812;52.430;16.936;2023-12-20T07:32:42;6.53;;;3.10;;
53903;SDS011;39812;52.430;16.936;2023-12-20T07:35:08;5.30;;;3.38;;
53903;SDS011;39812;52.430;16.936;2023-12-20T07:37:34;4.57;;;2.40;;
53903;SDS011;39812;52.430;16.936;2023-12-20T07:40:00;5.50;;;3.10;;
53903;SDS011;39812;52.430;16.936;2023-12-20T07:42:26;8.68;;;3.55;;
53903;SDS011;39812;52.430;16.936;2023-12-20T07:44:52;7.78;;;3.25;;
53903;SDS011;39812;52.430;16.936;2023-12-20T07:47:18;6.82;;;3.25;;
53903;SDS011;39812;52.430;16.936;2023-12-20T07:49:46;5.35;;;3.45;;
53903;SDS011;39812;52.430;16.936;2023-12-20T07:52:12;6.72;;;3.92;;
53903;SDS011;39812;52.430;16.936;2023-12-20T07:54:39;6.07;;;3.53;;
53903;SDS011;39812;52.430;16.936;2023-12-20T07:57:05;9.20;;;4.72;;
53903;SDS011;39812;52.430;16.936;2023-12-20T07:59:31;8.90;;;4.85;;
53903;SDS011;39812;52.430;16.936;2023-12-20T08:01:57;8.82;;;4.25;;
53903;SDS011;39812;52.430;16.936;2023-12-20T08:04:23;9.75;;;4.75;;
53903;SDS011;39812;52.430;16.936;2023-12-20T08:06:50;7.25;;;4.90;;
53903;SDS011;39812;52.430;16.936;2023-12-20T08:09:16;9.43;;;5.15;;
53903;SDS011;39812;52.430;16.936;2023-12-20T08:11:46;9.10;;;4.78;;
53903;SDS011;39812;52.430;16.936;2023-12-20T08:14:12;9.52;;;4.55;;
53903;SDS011;39812;52.430;16.936;2023-12-20T08:16:38;9.43;;;4.80;;
53903;SDS011;39812;52.430;16.936;2023-12-20T08:19:04;6.38;;;4.22;;
53903;SDS011;39812;52.430;16.936;2023-12-20T08:21:30;6.82;;;3.58;;
53903;SDS011;39812;52.430;16.936;2023-12-20T08:23:56;11.25;;;4.32;;
53903;SDS011;39812;52.430;16.936;2023-12-20T08:26:22;8.82;;;4.30;;
53903;SDS011;39812;52.430;16.936;2023-12-20T08:28:49;7.90;;;4.30;;
53903;SDS011;39812;52.430;16.936;2023-12-20T08:31:16;7.18;;;4.40;;
53903;SDS011;39812;52.430;16.936;2023-12-20T08:33:45;6.35;;;3.88;;
53903;SDS011;39812;52.430;16.936;2023-12-20T08:36:11;5.38;;;3.83;;
53903;SDS011;39812;52.430;16.936;2023-12-20T08:38:37;7.00;;;3.63;;
53903;SDS011;39812;52.430;16.936;2023-12-20T08:41:04;7.82;;;3.40;;
53903;SDS011;39812;52.430;16.936;2023-12-20T08:43:30;5.72;;;3.17;;
53903;SDS011;39812;52.430;16.936;2023-12-20T08:45:56;5.25;;;3.13;;
53903;SDS011;39812;52.430;16.936;2023-12-20T08:48:23;6.20;;;3.75;;
53903;SDS011;39812;52.430;16.936;2023-12-20T08:50:49;5.63;;;2.70;;
53903;SDS011;39812;52.430;16.936;2023-12-20T08:53:16;8.32;;;3.20;;
53903;SDS011;39812;52.430;16.936;2023-12-20T08:55:43;9.18;;;2.92;;
53903;SDS011;39812;52.430;16.936;2023-12-20T08:58:09;4.47;;;2.33;;
53903;SDS011;39812;52.430;16.936;2023-12-20T09:00:35;9.63;;;4.18;;
53903;SDS011;39812;52.430;16.936;2023-12-20T09:03:01;5.03;;;3.17;;
53903;SDS011;39812;52.430;16.936;2023-12-20T09:05:27;7.55;;;4.45;;
53903;SDS011;39812;52.430;16.936;2023-12-20T09:07:53;14.70;;;4.70;;
53903;SDS011;39812;52.430;16.936;2023-12-20T09:10:19;7.35;;;4.13;;
53903;SDS011;39812;52.430;16.936;2023-12-20T09:12:51;11.32;;;4.30;;
53903;SDS011;39812;52.430;16.936;2023-12-20T09:15:27;10.00;;;4.18;;
53903;SDS011;39812;52.430;16.936;2023-12-20T09:17:54;8.45;;;4.05;;
53903;SDS011;39812;52.430;16.936;2023-12-20T09:20:20;15.55;;;4.63;;
53903;SDS011;39812;52.430;16.936;2023-12-20T09:22:46;7.00;;;3.47;;
53903;SDS011;39812;52.430;16.936;2023-12-20T09:25:12;6.82;;;3.35;;
53903;SDS011;39812;52.430;16.936;2023-12-20T09:27:39;6.13;;;3.20;;
53903;SDS011;39812;52.430;16.936;2023-12-20T09:30:06;8.40;;;3.28;;
53903;SDS011;39812;52.430;16.936;2023-12-20T09:32:32;4.80;;;2.60;;
53903;SDS011;39812;52.430;16.936;2023-12-20T09:34:58;5.72;;;2.92;;
53903;SDS011;39812;52.430;16.936;2023-12-20T09:37:26;8.73;;;3.25;;
53903;SDS011;39812;52.430;16.936;2023-12-20T09:39:52;8.52;;;2.72;;
53903;SDS011;39812;52.430;16.936;2023-12-20T09:42:21;12.00;;;2.53;;
53903;SDS011;39812;52.430;16.936;2023-12-20T09:44:49;3.90;;;2.15;;
53903;SDS011;39812;52.430;16.936;2023-12-20T09:47:15;7.53;;;2.60;;
53903;SDS011;39812;52.430;16.936;2023-12-20T09:49:41;7.65;;;3.00;;
53903;SDS011;39812;52.430;16.936;2023-12-20T09:52:08;9.40;;;3.42;;
53903;SDS011;39812;52.430;16.936;2023-12-20T09:54:35;7.28;;;3.00;;
53903;SDS011;39812;52.430;16.936;2023-12-20T09:57:01;8.43;;;3.15;;
53903;SDS011;39812;52.430;16.936;2023-12-20T09:59:27;9.63;;;3.35;;
53903;SDS011;39812;52.430;16.936;2023-12-20T10:01:54;9.38;;;3.33;;
53903;SDS011;39812;52.430;16.936;2023-12-20T10:04:24;10.32;;;3.13;;
53903;SDS011;39812;52.430;16.936;2023-12-20T10:06:50;8.90;;;3.25;;
53903;SDS011;39812;52.430;16.936;2023-12-20T10:09:17;9.30;;;3.40;;
53903;SDS011;39812;52.430;16.936;2023-12-20T10:11:43;9.27;;;3.97;;
53903;SDS011;39812;52.430;16.936;2023-12-20T10:14:10;10.27;;;3.80;;
53903;SDS011;39812;52.430;16.936;2023-12-20T10:16:36;7.43;;;3.45;;
53903;SDS011;39812;52.430;16.936;2023-12-20T10:19:02;7.07;;;3.75;;
53903;SDS011;39812;52.430;16.936;2023-12-20T10:21:29;6.97;;;2.88;;
53903;SDS011;39812;52.430;16.936;2023-12-20T10:23:55;5.35;;;2.85;;
53903;SDS011;39812;52.430;16.936;2023-12-20T10:26:22;7.03;;;3.00;;
53903;SDS011;39812;52.430;16.936;2023-12-20T10:28:52;6.10;;;2.80;;
53903;SDS011;39812;52.430;16.936;2023-12-20T10:31:28;10.55;;;2.97;;
53903;SDS011;39812;52.430;16.936;2023-12-20T10:33:58;8.70;;;3.22;;
53903;SDS011;39812;52.430;16.936;2023-12-20T10:36:28;7.45;;;3.03;;
53903;SDS011;39812;52.430;16.936;2023-12-20T10:38:55;8.23;;;3.13;;
53903;SDS011;39812;52.430;16.936;2023-12-20T10:41:29;6.35;;;3.35;;
53903;SDS011;39812;52.430;16.936;2023-12-20T10:43:56;6.13;;;2.97;;
53903;SDS011;39812;52.430;16.936;2023-12-20T10:46:24;10.02;;;2.67;;
53903;SDS011;39812;52.430;16.936;2023-12-20T10:48:51;4.60;;;2.85;;
53903;SDS011;39812;52.430;16.936;2023-12-20T10:51:19;8.02;;;2.78;;
53903;SDS011;39812;52.430;16.936;2023-12-20T10:53:46;9.27;;;2.92;;
53903;SDS011;39812;52.430;16.936;2023-12-20T10:56:15;8.07;;;2.85;;
53903;SDS011;39812;52.430;16.936;2023-12-20T10:58:42;11.45;;;2.70;;
53903;SDS011;39812;52.430;16.936;2023-12-20T11:01:08;8.23;;;2.60;;
53903;SDS011;39812;52.430;16.936;2023-12-20T11:03:35;6.40;;;3.78;;
53903;SDS011;39812;52.430;16.936;2023-12-20T11:06:04;10.77;;;3.00;;
53903;SDS011;39812;52.430;16.936;2023-12-20T11:08:39;6.00;;;2.58;;
53903;SDS011;39812;52.430;16.936;2023-12-20T11:11:14;6.80;;;2.35;;
53903;SDS011;39812;52.430;16.936;2023-12-20T11:13:48;7.25;;;2.83;;
53903;SDS011;39812;52.430;16.936;2023-12-20T11:16:19;8.35;;;2.92;;
53903;SDS011;39812;52.430;16.936;2023-12-20T11:18:45;20.02;;;4.10;;
53903;SDS011;39812;52.430;16.936;2023-12-20T11:21:11;4.75;;;1.90;;
53903;SDS011;39812;52.430;16.936;2023-12-20T11:23:39;4.68;;;2.28;;
53903;SDS011;39812;52.430;16.936;2023-12-20T11:26:07;9.23;;;2.28;;
53903;SDS011;39812;52.430;16.936;2023-12-20T11:28:34;8.20;;;2.45;;
53903;SDS011;39812;52.430;16.936;2023-12-20T11:31:00;7.07;;;2.63;;
53903;SDS011;39812;52.430;16.936;2023-12-20T11:33:29;6.47;;;2.17;;
53903;SDS011;39812;52.430;16.936;2023-12-20T11:35:56;5.50;;;2.20;;
53903;SDS011;39812;52.430;16.936;2023-12-20T11:38:22;5.13;;;2.08;;
53903;SDS011;39812;52.430;16.936;2023-12-20T11:40:49;4.25;;;1.88;;
53903;SDS011;39812;52.430;16.936;2023-12-20T11:46:17;6.45;;;2.67;;
53903;SDS011;39812;52.430;16.936;2023-12-20T11:48:43;3.92;;;2.00;;
53903;SDS011;39812;52.430;16.936;2023-12-20T11:51:10;9.30;;;2.50;;
53903;SDS011;39812;52.430;16.936;2023-12-20T11:53:37;6.20;;;2.58;;
53903;SDS011;39812;52.430;16.936;2023-12-20T11:56:03;7.38;;;2.95;;
53903;SDS011;39812;52.430;16.936;2023-12-20T11:58:29;5.00;;;2.17;;
53903;SDS011;39812;52.430;16.936;2023-12-20T12:00:56;9.63;;;2.95;;
53903;SDS011;39812;52.430;16.936;2023-12-20T12:03:22;4.82;;;2.45;;
53903;SDS011;39812;52.430;16.936;2023-12-20T12:05:49;6.38;;;2.78;;
53903;SDS011;39812;52.430;16.936;2023-12-20T12:08:15;7.30;;;2.97;;
53903;SDS011;39812;52.430;16.936;2023-12-20T12:10:41;8.93;;;2.95;;
53903;SDS011;39812;52.430;16.936;2023-12-20T12:13:07;9.05;;;3.70;;
53903;SDS011;39812;52.430;16.936;2023-12-20T12:15:34;4.10;;;1.90;;
53903;SDS011;39812;52.430;16.936;2023-12-20T12:18:00;11.55;;;2.78;;
53903;SDS011;39812;52.430;16.936;2023-12-20T12:20:26;8.88;;;3.55;;
53903;SDS011;39812;52.430;16.936;2023-12-20T12:23:05;4.65;;;1.70;;
53903;SDS011;39812;52.430;16.936;2023-12-20T12:25:32;6.07;;;2.40;;
53903;SDS011;39812;52.430;16.936;2023-12-20T12:27:58;3.13;;;1.85;;
53903;SDS011;39812;52.430;16.936;2023-12-20T12:30:25;5.95;;;2.53;;
53903;SDS011;39812;52.430;16.936;2023-12-20T12:32:52;9.30;;;2.33;;
53903;SDS011;39812;52.430;16.936;2023-12-20T12:35:18;9.98;;;2.78;;
53903;SDS011;39812;52.430;16.936;2023-12-20T12:37:45;5.75;;;2.65;;
53903;SDS011;39812;52.430;16.936;2023-12-20T12:40:14;7.63;;;2.60;;
53903;SDS011;39812;52.430;16.936;2023-12-20T12:42:41;5.55;;;1.92;;
53903;SDS011;39812;52.430;16.936;2023-12-20T12:45:08;11.77;;;3.30;;
53903;SDS011;39812;52.430;16.936;2023-12-20T12:47:34;5.53;;;2.10;;
53903;SDS011;39812;52.430;16.936;2023-12-20T12:50:00;4.63;;;2.03;;
53903;SDS011;39812;52.430;16.936;2023-12-20T12:52:26;12.95;;;2.83;;
53903;SDS011;39812;52.430;16.936;2023-12-20T12:54:53;7.10;;;2.22;;
53903;SDS011;39812;52.430;16.936;2023-12-20T12:57:19;5.43;;;2.20;;
53903;SDS011;39812;52.430;16.936;2023-12-20T12:59:45;5.50;;;2.75;;
53903;SDS011;39812;52.430;16.936;2023-12-20T13:02:15;7.20;;;2.83;;
53903;SDS011;39812;52.430;16.936;2023-12-20T13:04:41;5.40;;;2.33;;
53903;SDS011;39812;52.430;16.936;2023-12-20T13:07:08;3.03;;;2.38;;
53903;SDS011;39812;52.430;16.936;2023-12-20T13:09:36;6.05;;;2.33;;
53903;SDS011;39812;52.430;16.936;2023-12-20T13:12:02;6.55;;;2.35;;
53903;SDS011;39812;52.430;16.936;2023-12-20T13:14:29;7.25;;;2.40;;
53903;SDS011;39812;52.430;16.936;2023-12-20T13:16:55;6.30;;;2.53;;
53903;SDS011;39812;52.430;16.936;2023-12-20T13:19:21;4.10;;;2.22;;
53903;SDS011;39812;52.430;16.936;2023-12-20T13:21:47;5.03;;;2.67;;
53903;SDS011;39812;52.430;16.936;2023-12-20T13:24:13;6.10;;;2.30;;
53903;SDS011;39812;52.430;16.936;2023-12-20T13:26:39;4.50;;;1.90;;
53903;SDS011;39812;52.430;16.936;2023-12-20T13:29:05;8.60;;;2.05;;
53903;SDS011;39812;52.430;16.936;2023-12-20T13:31:31;5.75;;;2.63;;
53903;SDS011;39812;52.430;16.936;2023-12-20T13:33:57;10.25;;;3.40;;
53903;SDS011;39812;52.430;16.936;2023-12-20T13:36:23;9.63;;;2.60;;
53903;SDS011;39812;52.430;16.936;2023-12-20T13:38:49;4.30;;;2.03;;
53903;SDS011;39812;52.430;16.936;2023-12-20T13:41:16;10.60;;;2.25;;
53903;SDS011;39812;52.430;16.936;2023-12-20T13:43:42;7.95;;;2.33;;
53903;SDS011;39812;52.430;16.936;2023-12-20T13:46:08;6.00;;;2.30;;
53903;SDS011;39812;52.430;16.936;2023-12-20T13:48:34;5.50;;;1.98;;
53903;SDS011;39812;52.430;16.936;2023-12-20T13:51:00;5.85;;;2.03;;
53903;SDS011;39812;52.430;16.936;2023-12-20T13:53:27;10.52;;;2.50;;
53903;SDS011;39812;52.430;16.936;2023-12-20T13:55:53;5.70;;;2.08;;
53903;SDS011;39812;52.430;16.936;2023-12-20T13:58:19;8.57;;;2.30;;
53903;SDS011;39812;52.430;16.936;2023-12-20T14:00:45;8.80;;;1.70;;
53903;SDS011;39812;52.430;16.936;2023-12-20T14:03:12;4.72;;;2.10;;
53903;SDS011;39812;52.430;16.936;2023-12-20T14:05:38;7.35;;;2.03;;
53903;SDS011;39812;52.430;16.936;2023-12-20T14:08:04;3.97;;;1.75;;
53903;SDS011;39812;52.430;16.936;2023-12-20T14:10:30;7.78;;;2.10;;
53903;SDS011;39812;52.430;16.936;2023-12-20T14:12:56;5.80;;;1.90;;
53903;SDS011;39812;52.430;16.936;2023-12-20T14:15:22;5.63;;;1.52;;
53903;SDS011;39812;52.430;16.936;2023-12-20T14:17:50;8.43;;;1.98;;
53903;SDS011;39812;52.430;16.936;2023-12-20T14:20:16;5.35;;;1.90;;
53903;SDS011;39812;52.430;16.936;2023-12-20T14:22:42;5.53;;;2.33;;
53903;SDS011;39812;52.430;16.936;2023-12-20T14:25:12;7.38;;;2.35;;
53903;SDS011;39812;52.430;16.936;2023-12-20T14:27:38;9.27;;;2.95;;
53903;SDS011;39812;52.430;16.936;2023-12-20T14:30:05;6.90;;;1.98;;